sensor_id;sensor_type;location;lat;lon;timestamp;P1;P2;P0
72918;PMS7003;68407;55.694;26.994;2023-12-29T00:02:25;21.4;17.8;11.6
72918;PMS7003;68407;55.694;26.994;2023-12-29T00:07:25;23.4;18.2;11.8
72918;PMS7003;68407;55.694;26.994;2023-12-29T00:11:53;21;16.2;10.2
72918;PMS7003;68407;55.694;26.994;2023-12-29T00:16:39;23.2;18.6;12.4
72918;PMS7003;68407;55.694;26.994;2023-12-29T00:21:43;18.2;13.6;8.8
72918;PMS7003;68407;55.694;26.994;2023-12-29T00:27:25;20.8;16.6;10.8
72918;PMS7003;68407;55.694;26.994;2023-12-29T00:31:39;19.4;17.2;11
72918;PMS7003;68407;55.694;26.994;2023-12-29T00:37:27;20.2;15.8;10.8
72918;PMS7003;68407;55.694;26.994;2023-12-29T00:42:25;21.8;16.4;11.2
72918;PMS7003;68407;55.694;26.994;2023-12-29T00:46:53;22.6;18;12.6
72918;PMS7003;68407;55.694;26.994;2023-12-29T00:51:39;21.3;16.3;11.8
72918;PMS7003;68407;55.694;26.994;2023-12-29T00:57:09;18.8;15;9.6
72918;PMS7003;68407;55.694;26.994;2023-12-29T01:02:25;21.4;16.4;11.6
72918;PMS7003;68407;55.694;26.994;2023-12-29T01:07:25;23.4;18.6;13
72918;PMS7003;68407;55.694;26.994;2023-12-29T01:12:25;19;15.6;11
72918;PMS7003;68407;55.694;26.994;2023-12-29T01:17:25;19.6;16.8;11.4
72918;PMS7003;68407;55.694;26.994;2023-12-29T01:22:18;21.4;17.6;12.6
72918;PMS7003;68407;55.694;26.994;2023-12-29T01:26:47;21;17.2;12
72918;PMS7003;68407;55.694;26.994;2023-12-29T01:32:07;22.4;19.6;13.6
72918;PMS7003;68407;55.694;26.994;2023-12-29T01:36:55;20.2;16.6;11.2
72918;PMS7003;68407;55.694;26.994;2023-12-29T01:41:47;23.2;18.2;12
72918;PMS7003;68407;55.694;26.994;2023-12-29T01:47:05;19;15.6;10.2
72918;PMS7003;68407;55.694;26.994;2023-12-29T01:51:39;21.8;17.8;11.5
72918;PMS7003;68407;55.694;26.994;2023-12-29T01:56:41;19.2;16.6;10.8
72918;PMS7003;68407;55.694;26.994;2023-12-29T02:02:17;19.2;15.8;10.6
72918;PMS7003;68407;55.694;26.994;2023-12-29T02:06:51;18.4;14.8;10.6
72918;PMS7003;68407;55.694;26.994;2023-12-29T02:11:39;18.2;15.4;10.8
72918;PMS7003;68407;55.694;26.994;2023-12-29T02:17:09;16;13.4;10.2
72918;PMS7003;68407;55.694;26.994;2023-12-29T02:22:27;18.8;15.8;10.6
72918;PMS7003;68407;55.694;26.994;2023-12-29T02:26:39;19;14.2;9.6
72918;PMS7003;68407;55.694;26.994;2023-12-29T02:31:48;16.2;13.8;10
72918;PMS7003;68407;55.694;26.994;2023-12-29T02:36:39;18;12.8;9.8
72918;PMS7003;68407;55.694;26.994;2023-12-29T02:41:51;15.8;12.6;9.4
72918;PMS7003;68407;55.694;26.994;2023-12-29T02:46:57;13.4;11;8.2
72918;PMS7003;68407;55.694;26.994;2023-12-29T02:52:17;13;10.4;7.6
72918;PMS7003;68407;55.694;26.994;2023-12-29T02:57:25;15.5;12.3;8.8
72918;PMS7003;68407;55.694;26.994;2023-12-29T03:02:09;10.8;8.8;6.6
72918;PMS7003;68407;55.694;26.994;2023-12-29T03:07:13;13.4;10.4;7.6
72918;PMS7003;68407;55.694;26.994;2023-12-29T03:12:25;11.8;10.2;7.4
72918;PMS7003;68407;55.694;26.994;2023-12-29T03:16:39;11.6;9.2;7.2
72918;PMS7003;68407;55.694;26.994;2023-12-29T03:21:47;11.2;8.4;6.2
72918;PMS7003;68407;55.694;26.994;2023-12-29T03:27:27;10.2;7.6;5.8
72918;PMS7003;68407;55.694;26.994;2023-12-29T03:32:17;9.2;7.4;5.4
72918;PMS7003;68407;55.694;26.994;2023-12-29T03:37:01;8.8;6.8;5
72918;PMS7003;68407;55.694;26.994;2023-12-29T03:41:37;9;7;5.4
72918;PMS7003;68407;55.694;26.994;2023-12-29T03:47:27;7.6;6;4.6
72918;PMS7003;68407;55.694;26.994;2023-12-29T03:52:17;8.8;6.4;5.2
72918;PMS7003;68407;55.694;26.994;2023-12-29T03:57:09;9.3;6.3;5
72918;PMS7003;68407;55.694;26.994;2023-12-29T04:02:13;6.8;5.4;4.4
72918;PMS7003;68407;55.694;26.994;2023-12-29T04:07:25;8.4;6.4;5
72918;PMS7003;68407;55.694;26.994;2023-12-29T04:11:49;8;6;4.4
72918;PMS7003;68407;55.694;26.994;2023-12-29T04:17:09;5.8;5.4;4.4
72918;PMS7003;68407;55.694;26.994;2023-12-29T04:22:15;7;6.2;4.6
72918;PMS7003;68407;55.694;26.994;2023-12-29T04:27:29;7.2;5.2;4.2
72918;PMS7003;68407;55.694;26.994;2023-12-29T04:32:21;8;6.2;4.8
72918;PMS7003;68407;55.694;26.994;2023-12-29T04:37:03;5.8;5;4.4
72918;PMS7003;68407;55.694;26.994;2023-12-29T04:41:37;8.4;5.8;4.6
72918;PMS7003;68407;55.694;26.994;2023-12-29T04:47:07;6.6;4.2;3.4
72918;PMS7003;68407;55.694;26.994;2023-12-29T04:52:27;7;5.4;4.2
72918;PMS7003;68407;55.694;26.994;2023-12-29T04:57:15;6.8;6.8;5.5
72918;PMS7003;68407;55.694;26.994;2023-12-29T05:02:29;7.4;6.8;5
72918;PMS7003;68407;55.694;26.994;2023-12-29T05:07:15;9.4;7.6;5.8
72918;PMS7003;68407;55.694;26.994;2023-12-29T05:12:15;9.8;8.4;6.4
72918;PMS7003;68407;55.694;26.994;2023-12-29T05:17:09;9.4;8;6.6
72918;PMS7003;68407;55.694;26.994;2023-12-29T05:21:39;9.4;8.2;5.8
72918;PMS7003;68407;55.694;26.994;2023-12-29T05:27:27;12;8.8;6.4
72918;PMS7003;68407;55.694;26.994;2023-12-29T05:32:29;12;9.2;6.8
72918;PMS7003;68407;55.694;26.994;2023-12-29T05:36:59;11.6;9.6;7.2
72918;PMS7003;68407;55.694;26.994;2023-12-29T05:42:28;11.4;9.4;6.6
72918;PMS7003;68407;55.694;26.994;2023-12-29T05:46:37;10.4;8;6.4
72918;PMS7003;68407;55.694;26.994;2023-12-29T05:52:07;11.4;8.8;6.4
72918;PMS7003;68407;55.694;26.994;2023-12-29T05:57:02;10.8;9.5;7
72918;PMS7003;68407;55.694;26.994;2023-12-29T06:01:39;12.6;10.2;6.4
72918;PMS7003;68407;55.694;26.994;2023-12-29T06:06:53;12.6;9.8;7
72918;PMS7003;68407;55.694;26.994;2023-12-29T06:12:14;10.2;8.8;6.4
72918;PMS7003;68407;55.694;26.994;2023-12-29T06:16:37;13.2;9.8;7.2
72918;PMS7003;68407;55.694;26.994;2023-12-29T06:21:40;12.6;10;6.8
72918;PMS7003;68407;55.694;26.994;2023-12-29T06:26:59;10.2;8.2;6.4
72918;PMS7003;68407;55.694;26.994;2023-12-29T06:32:06;11.2;9.2;6.8
72918;PMS7003;68407;55.694;26.994;2023-12-29T06:36:57;11.8;9.2;6.6
72918;PMS7003;68407;55.694;26.994;2023-12-29T06:42:07;11.8;8.6;6.4
72918;PMS7003;68407;55.694;26.994;2023-12-29T06:47:29;10.8;9.4;7
72918;PMS7003;68407;55.694;26.994;2023-12-29T06:52:07;10.2;8;6.2
72918;PMS7003;68407;55.694;26.994;2023-12-29T06:57:04;10.3;9;6.8
72918;PMS7003;68407;55.694;26.994;2023-12-29T07:02:07;12;9.8;7.2
72918;PMS7003;68407;55.694;26.994;2023-12-29T07:07:28;11.4;9;6.8
72918;PMS7003;68407;55.694;26.994;2023-12-29T07:11:52;11.8;10;7.4
72918;PMS7003;68407;55.694;26.994;2023-12-29T07:17:32;13.6;9.4;7.4
72918;PMS7003;68407;55.694;26.994;2023-12-29T07:22:30;14;10.4;7.6
72918;PMS7003;68407;55.694;26.994;2023-12-29T07:27:22;12.2;9.8;7.2
72918;PMS7003;68407;55.694;26.994;2023-12-29T07:32:00;12.4;10.4;7.2
72918;PMS7003;68407;55.694;26.994;2023-12-29T07:37:32;10.8;8.8;6.6
72918;PMS7003;68407;55.694;26.994;2023-12-29T07:42:08;14.2;9.2;7.2
72918;PMS7003;68407;55.694;26.994;2023-12-29T07:46:56;12.2;9.8;7.4
72918;PMS7003;68407;55.694;26.994;2023-12-29T07:52:04;10.2;8.8;6.4
72918;PMS7003;68407;55.694;26.994;2023-12-29T07:57:20;13.2;10.4;8
72918;PMS7003;68407;55.694;26.994;2023-12-29T08:01:40;10.8;9;6.5
72918;PMS7003;68407;55.694;26.994;2023-12-29T08:06:40;12;10;7.4
72918;PMS7003;68407;55.694;26.994;2023-12-29T08:12:22;11.2;9;6.8
72918;PMS7003;68407;55.694;26.994;2023-12-29T08:17:22;10.8;8.8;6.8
72918;PMS7003;68407;55.694;26.994;2023-12-29T08:21:46;10.8;8.4;6.6
72918;PMS7003;68407;55.694;26.994;2023-12-29T08:27:06;11;7.8;6.4
72918;PMS7003;68407;55.694;26.994;2023-12-29T08:32:10;9.4;7.6;5.8
72918;PMS7003;68407;55.694;26.994;2023-12-29T08:36:44;11.2;8.4;6.2
72918;PMS7003;68407;55.694;26.994;2023-12-29T08:41:54;11.4;8.8;6.8
72918;PMS7003;68407;55.694;26.994;2023-12-29T08:46:56;10.8;9.4;7.2
72918;PMS7003;68407;55.694;26.994;2023-12-29T08:52:32;12;10.6;7.4
72918;PMS7003;68407;55.694;26.994;2023-12-29T08:57:28;11.4;9.2;7
72918;PMS7003;68407;55.694;26.994;2023-12-29T09:01:40;13.3;9.8;7.3
72918;PMS7003;68407;55.694;26.994;2023-12-29T09:06:40;12;9.4;6.6
72918;PMS7003;68407;55.694;26.994;2023-12-29T09:11:58;11;8.4;6.4
72918;PMS7003;68407;55.694;26.994;2023-12-29T09:17:30;13;10.2;7.2
72918;PMS7003;68407;55.694;26.994;2023-12-29T09:21:46;12;9;6.4
72918;PMS7003;68407;55.694;26.994;2023-12-29T09:27:22;12.4;10.4;7.4
72918;PMS7003;68407;55.694;26.994;2023-12-29T09:32:28;13.6;10;7.2
72918;PMS7003;68407;55.694;26.994;2023-12-29T09:37:08;11.2;9.6;7
72918;PMS7003;68407;55.694;26.994;2023-12-29T09:41:58;13;10.4;8
72918;PMS7003;68407;55.694;26.994;2023-12-29T09:46:38;12.6;10.4;8.2
72918;PMS7003;68407;55.694;26.994;2023-12-29T09:52:32;12.4;9;7.4
72918;PMS7003;68407;55.694;26.994;2023-12-29T09:57:32;12.2;9.8;7.8
72918;PMS7003;68407;55.694;26.994;2023-12-29T10:02:12;12;9.3;7
72918;PMS7003;68407;55.694;26.994;2023-12-29T10:07:31;11.4;9.8;7.2
72918;PMS7003;68407;55.694;26.994;2023-12-29T10:12:08;11.6;8.8;7
72918;PMS7003;68407;55.694;26.994;2023-12-29T10:16:52;12.8;9.8;7.2
72918;PMS7003;68407;55.694;26.994;2023-12-29T10:21:52;11.8;10.4;7.8
72918;PMS7003;68407;55.694;26.994;2023-12-29T10:27:08;13;11.2;8
72918;PMS7003;68407;55.694;26.994;2023-12-29T10:32:08;12;10.6;8
72918;PMS7003;68407;55.694;26.994;2023-12-29T10:37:14;11.2;9.8;7.4
72918;PMS7003;68407;55.694;26.994;2023-12-29T10:42:06;13.6;11;8.4
72918;PMS7003;68407;55.694;26.994;2023-12-29T10:46:38;14;12.4;8.8
72918;PMS7003;68407;55.694;26.994;2023-12-29T10:51:44;15;12.6;9.2
72918;PMS7003;68407;55.694;26.994;2023-12-29T10:57:14;13;10.4;7.4
72918;PMS7003;68407;55.694;26.994;2023-12-29T11:01:44;13.5;10.3;7.5
72918;PMS7003;68407;55.694;26.994;2023-12-29T11:07:06;12.6;10.6;8.6
72918;PMS7003;68407;55.694;26.994;2023-12-29T11:12:28;12.8;10.8;8.4
72918;PMS7003;68407;55.694;26.994;2023-12-29T11:16:38;13;11.6;8
72918;PMS7003;68407;55.694;26.994;2023-12-29T11:21:38;16.2;13;9.2
72918;PMS7003;68407;55.694;26.994;2023-12-29T11:27:08;17.2;13.8;9
72918;PMS7003;68407;55.694;26.994;2023-12-29T11:31:52;17.6;13.8;9
72918;PMS7003;68407;55.694;26.994;2023-12-29T11:37:22;15;13;9
72918;PMS7003;68407;55.694;26.994;2023-12-29T11:42:02;14.2;12.2;9.2
72918;PMS7003;68407;55.694;26.994;2023-12-29T11:47:34;17.6;14.2;9.8
72918;PMS7003;68407;55.694;26.994;2023-12-29T11:51:54;20.6;16;10.4
72918;PMS7003;68407;55.694;26.994;2023-12-29T11:56:38;19.6;15.8;11.2
72918;PMS7003;68407;55.694;26.994;2023-12-29T12:01:57;14.5;13.8;10
72918;PMS7003;68407;55.694;26.994;2023-12-29T12:06:52;18.4;15.8;10.8
72918;PMS7003;68407;55.694;26.994;2023-12-29T12:12:37;19;15.2;10.8
72918;PMS7003;68407;55.694;26.994;2023-12-29T12:17:04;19;15.2;10.8
72918;PMS7003;68407;55.694;26.994;2023-12-29T12:22:16;16.4;14;10.8
72918;PMS7003;68407;55.694;26.994;2023-12-29T12:26:54;16.2;14;10.4
72918;PMS7003;68407;55.694;26.994;2023-12-29T12:31:51;19.8;16.6;11.2
72918;PMS7003;68407;55.694;26.994;2023-12-29T12:37:30;20.2;15;11
72918;PMS7003;68407;55.694;26.994;2023-12-29T12:42:30;18.2;15;11.2
72918;PMS7003;68407;55.694;26.994;2023-12-29T12:47:06;17.6;14.4;10.6
72918;PMS7003;68407;55.694;26.994;2023-12-29T12:52:30;17.4;13.6;9.6
72918;PMS7003;68407;55.694;26.994;2023-12-29T12:57:30;16.6;13.2;9.2
72918;PMS7003;68407;55.694;26.994;2023-12-29T13:01:38;16.2;12.4;9
72918;PMS7003;68407;55.694;26.994;2023-12-29T13:06:39;16.3;14;9.8
72918;PMS7003;68407;55.694;26.994;2023-12-29T13:12:16;16.2;13.2;9.6
72918;PMS7003;68407;55.694;26.994;2023-12-29T13:17:14;17.8;14.4;10
72918;PMS7003;68407;55.694;26.994;2023-12-29T13:22:30;18.2;15.6;10.2
72918;PMS7003;68407;55.694;26.994;2023-12-29T13:27:02;16.8;13.8;9.8
72918;PMS7003;68407;55.694;26.994;2023-12-29T13:31:38;17.4;13;9.4
72918;PMS7003;68407;55.694;26.994;2023-12-29T13:37:10;17.4;14.6;10.6
72918;PMS7003;68407;55.694;26.994;2023-12-29T13:42:30;15.8;13.4;9.6
72918;PMS7003;68407;55.694;26.994;2023-12-29T13:47:30;17.6;14.6;10.4
72918;PMS7003;68407;55.694;26.994;2023-12-29T13:52:00;14.4;13;9.6
72918;PMS7003;68407;55.694;26.994;2023-12-29T13:57:32;17.8;13.2;8.4
72918;PMS7003;68407;55.694;26.994;2023-12-29T14:02:19;15.8;12.6;9.4
72918;PMS7003;68407;55.694;26.994;2023-12-29T14:06:59;15.3;12.3;9.5
72918;PMS7003;68407;55.694;26.994;2023-12-29T14:11:46;16.2;11.4;9
72918;PMS7003;68407;55.694;26.994;2023-12-29T14:17:30;14;11.6;8.4
72918;PMS7003;68407;55.694;26.994;2023-12-29T14:22:28;15;12.4;8.4
72918;PMS7003;68407;55.694;26.994;2023-12-29T14:27:28;12.6;11.6;8.4
72918;PMS7003;68407;55.694;26.994;2023-12-29T14:32:12;10.4;8.8;6.4
72918;PMS7003;68407;55.694;26.994;2023-12-29T14:37:14;11.4;9.8;7.6
72918;PMS7003;68407;55.694;26.994;2023-12-29T14:41:52;12.4;10.6;8
72918;PMS7003;68407;55.694;26.994;2023-12-29T14:46:46;9.8;7.4;6
72918;PMS7003;68407;55.694;26.994;2023-12-29T14:52:18;11;8.6;6.2
72918;PMS7003;68407;55.694;26.994;2023-12-29T14:56:40;8.8;6.2;4.8
72918;PMS7003;68407;55.694;26.994;2023-12-29T15:02:00;6.4;5.4;4.6
72918;PMS7003;68407;55.694;26.994;2023-12-29T15:06:48;6;5.3;4
72918;PMS7003;68407;55.694;26.994;2023-12-29T15:11:58;5.2;5;4
72918;PMS7003;68407;55.694;26.994;2023-12-29T15:16:40;3;2.8;2.4
72918;PMS7003;68407;55.694;26.994;2023-12-29T15:22:32;3.4;2.6;2.2
72918;PMS7003;68407;55.694;26.994;2023-12-29T15:26:40;3;2.6;2
72918;PMS7003;68407;55.694;26.994;2023-12-29T15:31:42;2.8;2;1.6
72918;PMS7003;68407;55.694;26.994;2023-12-29T15:37:32;3.6;2.2;1.6
72918;PMS7003;68407;55.694;26.994;2023-12-29T15:42:06;3;2;1.6
72918;PMS7003;68407;55.694;26.994;2023-12-29T15:46:40;2.8;2.2;1.8
72918;PMS7003;68407;55.694;26.994;2023-12-29T15:52:08;3;2.4;1.8
72918;PMS7003;68407;55.694;26.994;2023-12-29T15:56:40;2.4;1.6;1
72918;PMS7003;68407;55.694;26.994;2023-12-29T16:02:00;2.4;2.2;1.8
72918;PMS7003;68407;55.694;26.994;2023-12-29T16:07:20;2.3;1.8;1.5
72918;PMS7003;68407;55.694;26.994;2023-12-29T16:12:32;2.2;2.2;1.6
72918;PMS7003;68407;55.694;26.994;2023-12-29T16:16:46;2.6;2.2;1.8
72918;PMS7003;68407;55.694;26.994;2023-12-29T16:21:42;3.6;2.4;2
72918;PMS7003;68407;55.694;26.994;2023-12-29T16:27:30;3.2;2.4;2
72918;PMS7003;68407;55.694;26.994;2023-12-29T16:31:40;3;2.2;2
72918;PMS7003;68407;55.694;26.994;2023-12-29T16:36:55;1.6;1.6;1.6
72918;PMS7003;68407;55.694;26.994;2023-12-29T16:41:58;2.4;2.4;1.8
72918;PMS7003;68407;55.694;26.994;2023-12-29T16:46:40;3.4;2.2;2.2
72918;PMS7003;68407;55.694;26.994;2023-12-29T16:52:10;3.6;2.6;2.4
72918;PMS7003;68407;55.694;26.994;2023-12-29T16:57:30;2.8;2.6;2
72918;PMS7003;68407;55.694;26.994;2023-12-29T17:02:30;2.2;1.8;1.8
72918;PMS7003;68407;55.694;26.994;2023-12-29T17:07:10;3.8;2.8;2
72918;PMS7003;68407;55.694;26.994;2023-12-29T17:12:00;3;2.2;2
72918;PMS7003;68407;55.694;26.994;2023-12-29T17:17:30;2.8;2.4;2.2
72918;PMS7003;68407;55.694;26.994;2023-12-29T17:22:30;3;2.6;2.4
72918;PMS7003;68407;55.694;26.994;2023-12-29T17:26:56;3.6;3.2;2.8
72918;PMS7003;68407;55.694;26.994;2023-12-29T17:32:02;4;3.4;2.6
72918;PMS7003;68407;55.694;26.994;2023-12-29T17:37:18;4.8;3.4;2.6
72918;PMS7003;68407;55.694;26.994;2023-12-29T17:42:18;4.2;3.6;2.8
72918;PMS7003;68407;55.694;26.994;2023-12-29T17:47:30;5;3.8;3.2
72918;PMS7003;68407;55.694;26.994;2023-12-29T17:52:12;4;3;2.6
72918;PMS7003;68407;55.694;26.994;2023-12-29T17:57:32;4;3;2.2
72918;PMS7003;68407;55.694;26.994;2023-12-29T18:01:47;4;3.6;3
72918;PMS7003;68407;55.694;26.994;2023-12-29T18:07:32;4.3;3.8;2.8
72918;PMS7003;68407;55.694;26.994;2023-12-29T18:11:42;4.2;3.6;3
72918;PMS7003;68407;55.694;26.994;2023-12-29T18:17:22;4.4;3.6;2.8
72918;PMS7003;68407;55.694;26.994;2023-12-29T18:22:32;4;3.4;3
72918;PMS7003;68407;55.694;26.994;2023-12-29T18:26:58;4.2;3.4;2.6
72918;PMS7003;68407;55.694;26.994;2023-12-29T18:31:40;4.8;3.8;3.4
72918;PMS7003;68407;55.694;26.994;2023-12-29T18:36:44;5;4;3.4
72918;PMS7003;68407;55.694;26.994;2023-12-29T18:42:30;4;3;2.8
72918;PMS7003;68407;55.694;26.994;2023-12-29T18:47:32;5.6;4.4;3.2
72918;PMS7003;68407;55.694;26.994;2023-12-29T18:52:02;4.8;4;3.2
72918;PMS7003;68407;55.694;26.994;2023-12-29T18:57:24;5;4.4;3.6
72918;PMS7003;68407;55.694;26.994;2023-12-29T19:02:16;4.2;3.4;2.8
72918;PMS7003;68407;55.694;26.994;2023-12-29T19:07:02;5.8;3.8;3.2
72918;PMS7003;68407;55.694;26.994;2023-12-29T19:12:16;5;3.8;2.8
72918;PMS7003;68407;55.694;26.994;2023-12-29T19:17:32;4.4;3.8;3.2
72918;PMS7003;68407;55.694;26.994;2023-12-29T19:22:24;4.4;4;3.2
72918;PMS7003;68407;55.694;26.994;2023-12-29T19:26:52;4.2;3.2;2.8
72918;PMS7003;68407;55.694;26.994;2023-12-29T19:32:32;4.6;3.4;3
72918;PMS7003;68407;55.694;26.994;2023-12-29T19:36:46;4.2;3.4;2.8
72918;PMS7003;68407;55.694;26.994;2023-12-29T19:41:38;4.6;3.8;2.8
72918;PMS7003;68407;55.694;26.994;2023-12-29T19:46:40;5.4;4;3.2
72918;PMS7003;68407;55.694;26.994;2023-12-29T19:51:48;3.8;2.4;1.8
72918;PMS7003;68407;55.694;26.994;2023-12-29T19:56:40;3.2;2.8;2.4
72918;PMS7003;68407;55.694;26.994;2023-12-29T20:02:32;3.2;2.8;2.2
72918;PMS7003;68407;55.694;26.994;2023-12-29T20:07:16;2.8;2;1.6
72918;PMS7003;68407;55.694;26.994;2023-12-29T20:12:04;2.3;1.5;1.3
72918;PMS7003;68407;55.694;26.994;2023-12-29T20:16:54;2.8;1.8;1.6
72918;PMS7003;68407;55.694;26.994;2023-12-29T20:21:40;2.8;1.8;1.2
72918;PMS7003;68407;55.694;26.994;2023-12-29T20:26:52;2.4;2;1.2
72918;PMS7003;68407;55.694;26.994;2023-12-29T20:32:02;2;1;0.8
72918;PMS7003;68407;55.694;26.994;2023-12-29T20:37:30;1.6;1.6;1.2
72918;PMS7003;68407;55.694;26.994;2023-12-29T20:42:02;1.8;1.2;1
72918;PMS7003;68407;55.694;26.994;2023-12-29T20:46:38;1.4;1.2;1
72918;PMS7003;68407;55.694;26.994;2023-12-29T20:52:32;1.8;1.6;1.2
72918;PMS7003;68407;55.694;26.994;2023-12-29T20:57:02;2;1.4;1
72918;PMS7003;68407;55.694;26.994;2023-12-29T21:02:00;1;0.6;0.4
72918;PMS7003;68407;55.694;26.994;2023-12-29T21:06:40;1.8;0.8;0.6
72918;PMS7003;68407;55.694;26.994;2023-12-29T21:12:20;1.8;1;0.8
72918;PMS7003;68407;55.694;26.994;2023-12-29T21:16:54;0.6;0.2;0.2
72918;PMS7003;68407;55.694;26.994;2023-12-29T21:21:46;0.6;0.2;0.2
72918;PMS7003;68407;55.694;26.994;2023-12-29T21:27:32;0.6;0.2;0.2
72918;PMS7003;68407;55.694;26.994;2023-12-29T21:32:08;2;0.4;0.2
72918;PMS7003;68407;55.694;26.994;2023-12-29T21:37:10;1.2;0.2;0.2
72918;PMS7003;68407;55.694;26.994;2023-12-29T21:42:00;0.8;0.4;0.2
72918;PMS7003;68407;55.694;26.994;2023-12-29T21:47:32;1;0.2;0.2
72918;PMS7003;68407;55.694;26.994;2023-12-29T21:51:48;1;0.4;0.4
72918;PMS7003;68407;55.694;26.994;2023-12-29T21:57:10;1;0.4;0.2
72918;PMS7003;68407;55.694;26.994;2023-12-29T22:02:18;0.6;0.4;0
72918;PMS7003;68407;55.694;26.994;2023-12-29T22:07:12;0.8;0.4;0.4
72918;PMS7003;68407;55.694;26.994;2023-12-29T22:12:32;1;0.8;0.5
72918;PMS7003;68407;55.694;26.994;2023-12-29T22:16:46;1;0.6;0.4
72918;PMS7003;68407;55.694;26.994;2023-12-29T22:21:46;1;0.6;0.4
72918;PMS7003;68407;55.694;26.994;2023-12-29T22:26:40;1.6;0.4;0.2
72918;PMS7003;68407;55.694;26.994;2023-12-29T22:32:30;0.8;0.2;0
72918;PMS7003;68407;55.694;26.994;2023-12-29T22:37:16;2.2;1;0.8
72918;PMS7003;68407;55.694;26.994;2023-12-29T22:42:20;1.2;0.8;0.4
72918;PMS7003;68407;55.694;26.994;2023-12-29T22:47:32;1.2;0.8;0.6
72918;PMS7003;68407;55.694;26.994;2023-12-29T22:52:18;1.2;1;0.6
72918;PMS7003;68407;55.694;26.994;2023-12-29T22:57:02;1.2;0.8;0.6
72918;PMS7003;68407;55.694;26.994;2023-12-29T23:01:38;1.8;0.8;0.2
72918;PMS7003;68407;55.694;26.994;2023-12-29T23:07:32;1.8;1;0.8
72918;PMS7003;68407;55.694;26.994;2023-12-29T23:12:30;1.4;1;0.6
72918;PMS7003;68407;55.694;26.994;2023-12-29T23:17:32;1;1;1
72918;PMS7003;68407;55.694;26.994;2023-12-29T23:22:30;2;1;1
72918;PMS7003;68407;55.694;26.994;2023-12-29T23:27:22;2.6;1.8;0.8
72918;PMS7003;68407;55.694;26.994;2023-12-29T23:31:45;1.2;0.6;0.2
72918;PMS7003;68407;55.694;26.994;2023-12-29T23:37:18;1.8;1;0.8
72918;PMS7003;68407;55.694;26.994;2023-12-29T23:42:30;1.4;1;0.8
72918;PMS7003;68407;55.694;26.994;2023-12-29T23:47:06;2.4;1.8;1.4
72918;PMS7003;68407;55.694;26.994;2023-12-29T23:52:20;1.6;1.2;1
72918;PMS7003;68407;55.694;26.994;2023-12-29T23:57:32;2;1.6;1.4
